createdAt,value
2022-12-31T00:00:36.477Z,99.42
2022-12-31T00:03:04.703Z,98.87
2022-12-31T00:05:33.624Z,99.03
2022-12-31T00:08:03.003Z,100.00
2022-12-31T00:10:34.269Z,100.00
2022-12-31T00:13:02.359Z,100.00
2022-12-31T00:15:30.417Z,100.00
2022-12-31T00:17:58.384Z,100.00
2022-12-31T00:20:26.349Z,100.00
2022-12-31T00:22:54.356Z,100.00
2022-12-31T00:25:22.464Z,100.00
2022-12-31T00:27:51.846Z,100.00
2022-12-31T00:30:19.859Z,100.00
2022-12-31T00:32:47.868Z,99.61
2022-12-31T00:35:16.001Z,99.42
2022-12-31T00:37:44.003Z,100.00
2022-12-31T00:40:12.820Z,100.00
2022-12-31T00:42:40.851Z,100.00
2022-12-31T00:45:11.395Z,100.00
2022-12-31T00:47:39.411Z,100.00
2022-12-31T00:50:08.230Z,100.00
2022-12-31T00:52:36.199Z,100.00
2022-12-31T00:55:04.318Z,100.00
2022-12-31T00:57:32.268Z,100.00
2022-12-31T01:00:00.204Z,99.37
2022-12-31T01:02:29.849Z,98.68
2022-12-31T01:04:57.977Z,98.60
2022-12-31T01:07:25.948Z,98.45
2022-12-31T01:09:54.418Z,99.05
2022-12-31T01:12:22.416Z,98.85
2022-12-31T01:14:50.405Z,99.18
2022-12-31T01:17:18.443Z,99.58
2022-12-31T01:19:47.840Z,100.00
2022-12-31T01:22:15.837Z,100.00
2022-12-31T01:24:44.051Z,100.00
2022-12-31T01:27:12.081Z,100.00
2022-12-31T01:29:39.974Z,100.00
2022-12-31T01:32:08.010Z,100.00
2022-12-31T01:34:36.018Z,100.00
2022-12-31T01:37:05.287Z,99.38
2022-12-31T01:39:33.287Z,99.09
2022-12-31T01:42:01.203Z,99.10
2022-12-31T01:44:52.365Z,98.72
2022-12-31T01:47:29.066Z,98.80
2022-12-31T01:50:01.512Z,99.53
2022-12-31T01:52:33.727Z,100.00
2022-12-31T01:55:07.113Z,100.00
2022-12-31T01:57:36.487Z,100.00
2022-12-31T02:00:06.723Z,100.00
2022-12-31T02:02:34.900Z,100.00
2022-12-31T02:05:07.062Z,100.00
2022-12-31T02:07:36.582Z,100.00
2022-12-31T02:10:04.905Z,100.00
2022-12-31T02:12:33.188Z,100.00
2022-12-31T02:15:01.171Z,99.35
2022-12-31T02:17:34.059Z,99.43
2022-12-31T02:20:52.247Z,98.28
2022-12-31T02:23:49.848Z,98.82
2022-12-31T02:26:46.502Z,98.66
2022-12-31T02:30:00.281Z,99.92
2022-12-31T02:32:39.340Z,98.68
2022-12-31T02:35:13.137Z,97.93
2022-12-31T02:37:44.579Z,98.48
2022-12-31T02:40:16.381Z,98.28
2022-12-31T02:42:46.420Z,98.10
2022-12-31T02:45:24.164Z,98.64
2022-12-31T02:48:06.517Z,98.61
2022-12-31T02:50:42.251Z,98.93
2022-12-31T02:53:25.493Z,98.11
2022-12-31T02:56:00.275Z,99.02
2022-12-31T02:58:49.257Z,99.57
2022-12-31T03:01:54.594Z,99.55
2022-12-31T03:04:36.257Z,99.28
2022-12-31T03:07:06.842Z,100.00
2022-12-31T03:09:35.609Z,100.00
2022-12-31T03:12:22.774Z,100.00
2022-12-31T03:14:51.067Z,100.00
2022-12-31T03:17:19.133Z,100.00
2022-12-31T03:20:06.107Z,100.00
2022-12-31T03:22:36.493Z,100.00
2022-12-31T03:25:25.449Z,100.00
2022-12-31T03:27:53.782Z,100.00
2022-12-31T03:30:23.481Z,100.00
2022-12-31T03:32:52.579Z,100.00
2022-12-31T03:35:22.575Z,100.00
2022-12-31T03:37:51.929Z,100.00
2022-12-31T03:40:22.113Z,100.00
2022-12-31T03:42:50.220Z,100.00
2022-12-31T03:45:18.708Z,100.00
2022-12-31T03:47:46.751Z,100.00
2022-12-31T03:50:16.323Z,100.00
2022-12-31T03:52:45.865Z,100.00
2022-12-31T03:55:14.751Z,100.00
2022-12-31T03:57:43.206Z,100.00
2022-12-31T04:00:15.009Z,100.00
2022-12-31T04:02:43.265Z,100.00
2022-12-31T04:05:11.795Z,100.00
2022-12-31T04:07:40.202Z,100.00
2022-12-31T04:10:12.383Z,100.00
2022-12-31T04:12:40.895Z,100.00
2022-12-31T04:15:11.520Z,100.00
2022-12-31T04:17:39.569Z,100.00
2022-12-31T04:20:08.808Z,100.00
2022-12-31T04:22:36.749Z,100.00
2022-12-31T04:25:05.362Z,99.77
2022-12-31T04:27:34.669Z,99.27
2022-12-31T04:30:02.673Z,100.00
2022-12-31T04:32:30.754Z,100.00
2022-12-31T04:34:58.748Z,100.00
2022-12-31T04:37:26.706Z,100.00
2022-12-31T04:39:57.870Z,100.00
2022-12-31T04:42:28.316Z,100.00
2022-12-31T04:44:57.726Z,100.00
2022-12-31T04:47:25.827Z,100.00
2022-12-31T04:49:53.874Z,100.00
2022-12-31T04:52:22.120Z,100.00
2022-12-31T04:54:50.080Z,99.93
2022-12-31T04:57:18.576Z,100.00
2022-12-31T04:59:46.648Z,100.00
2022-12-31T05:02:16.252Z,100.00
2022-12-31T05:04:44.441Z,100.00
2022-12-31T05:07:12.419Z,100.00
2022-12-31T05:09:40.519Z,100.00
2022-12-31T05:12:08.708Z,99.81
2022-12-31T05:14:36.624Z,100.00
2022-12-31T05:17:04.657Z,100.00
2022-12-31T05:19:34.156Z,100.00
2022-12-31T05:22:19.195Z,100.00
2022-12-31T05:24:47.147Z,100.00
2022-12-31T05:27:15.170Z,100.00
2022-12-31T05:29:43.083Z,99.99
2022-12-31T05:32:11.081Z,99.66
2022-12-31T05:34:40.489Z,99.63
2022-12-31T05:37:08.504Z,99.64
2022-12-31T05:39:36.429Z,98.72
2022-12-31T05:42:04.460Z,99.23
2022-12-31T05:44:32.497Z,98.42
2022-12-31T05:47:00.506Z,98.63
2022-12-31T05:49:28.535Z,99.86
2022-12-31T05:51:57.981Z,99.31
2022-12-31T05:54:25.929Z,99.57
2022-12-31T05:56:53.878Z,100.00
2022-12-31T05:59:21.947Z,99.34
2022-12-31T06:01:49.973Z,99.85
2022-12-31T06:04:18.306Z,99.93
2022-12-31T06:06:46.276Z,100.00
2022-12-31T06:09:16.062Z,100.00
2022-12-31T06:11:44.381Z,100.00
2022-12-31T06:14:12.653Z,100.00
2022-12-31T06:16:41.286Z,100.00
2022-12-31T06:19:09.739Z,100.00
2022-12-31T06:21:37.716Z,100.00
2022-12-31T06:24:06.425Z,100.00
2022-12-31T06:26:35.800Z,100.00
2022-12-31T06:29:03.875Z,100.00
2022-12-31T06:31:31.845Z,100.00
2022-12-31T06:34:00.271Z,100.00
2022-12-31T06:36:28.309Z,99.33
2022-12-31T06:38:56.633Z,99.36
2022-12-31T06:41:24.658Z,99.19
2022-12-31T06:43:54.179Z,98.65
2022-12-31T06:46:22.170Z,97.91
2022-12-31T06:48:50.115Z,97.86
2022-12-31T06:51:20.294Z,97.80
2022-12-31T06:53:49.564Z,97.23
2022-12-31T06:56:19.513Z,97.32
2022-12-31T06:58:48.913Z,97.25
2022-12-31T07:01:44.617Z,96.41
2022-12-31T07:04:53.146Z,96.21
2022-12-31T07:07:28.089Z,95.41
2022-12-31T07:10:02.965Z,94.96
2022-12-31T07:12:45.069Z,93.56
2022-12-31T07:15:17.623Z,93.38
2022-12-31T07:17:56.480Z,93.35
2022-12-31T07:20:24.936Z,93.31
2022-12-31T07:22:53.539Z,93.14
2022-12-31T07:25:23.527Z,91.84
2022-12-31T07:28:07.408Z,90.82
2022-12-31T07:30:43.983Z,90.69
2022-12-31T07:33:33.661Z,90.98
2022-12-31T07:36:14.586Z,90.68
2022-12-31T07:38:51.458Z,91.73
2022-12-31T07:41:28.281Z,91.58
2022-12-31T07:44:05.133Z,92.59
2022-12-31T07:46:42.232Z,94.46
2022-12-31T07:49:14.548Z,95.34
2022-12-31T07:51:43.482Z,95.39
2022-12-31T07:54:14.135Z,95.27
2022-12-31T07:56:43.007Z,94.04
2022-12-31T07:59:24.638Z,93.60
2022-12-31T08:01:57.809Z,93.45
2022-12-31T08:04:32.596Z,94.08
2022-12-31T08:07:11.186Z,93.10
2022-12-31T08:09:48.303Z,91.60
2022-12-31T08:12:16.567Z,91.66
2022-12-31T08:14:48.375Z,90.74
2022-12-31T08:17:18.860Z,90.70
2022-12-31T08:19:48.933Z,90.69
2022-12-31T08:22:35.981Z,90.44
2022-12-31T08:25:15.444Z,91.05
2022-12-31T08:27:51.637Z,91.18
2022-12-31T08:30:22.164Z,90.25
2022-12-31T08:32:56.037Z,90.61
2022-12-31T08:35:33.711Z,89.75
2022-12-31T08:38:16.603Z,89.31
2022-12-31T08:40:53.285Z,89.64
2022-12-31T08:43:36.499Z,89.19
2022-12-31T08:46:07.126Z,88.48
2022-12-31T08:48:40.528Z,88.21
2022-12-31T08:51:15.788Z,87.35
2022-12-31T08:53:44.326Z,88.30
2022-12-31T08:56:25.240Z,85.00
2022-12-31T08:59:02.858Z,84.86
2022-12-31T09:01:41.563Z,84.50
2022-12-31T09:04:21.458Z,84.26
2022-12-31T09:06:58.696Z,82.70
2022-12-31T09:09:36.433Z,82.58
2022-12-31T09:12:11.647Z,81.07
2022-12-31T09:14:47.059Z,80.23
2022-12-31T09:17:43.937Z,79.57
2022-12-31T09:20:18.780Z,78.74
2022-12-31T09:22:48.549Z,76.92
2022-12-31T09:25:19.048Z,75.27
2022-12-31T09:27:58.229Z,74.40
2022-12-31T09:30:29.145Z,72.14
2022-12-31T09:33:05.905Z,70.75
2022-12-31T09:35:39.775Z,70.46
2022-12-31T09:38:16.494Z,70.14
2022-12-31T09:41:15.280Z,68.94
2022-12-31T09:44:33.838Z,70.46
2022-12-31T09:47:55.786Z,68.43
2022-12-31T09:50:45.399Z,67.86
2022-12-31T09:53:40.414Z,66.83
2022-12-31T09:56:16.726Z,67.99
2022-12-31T09:58:52.633Z,67.95
2022-12-31T10:01:31.439Z,69.21
2022-12-31T10:04:32.333Z,68.45
2022-12-31T10:07:18.012Z,67.99
2022-12-31T10:10:00.926Z,67.58
2022-12-31T10:12:46.913Z,68.24
2022-12-31T10:15:36.624Z,68.86
2022-12-31T10:18:13.987Z,67.99
2022-12-31T10:20:57.338Z,67.66
2022-12-31T10:23:52.403Z,67.80
2022-12-31T10:26:38.782Z,67.17
2022-12-31T10:29:20.280Z,67.56
2022-12-31T10:32:01.499Z,65.94
2022-12-31T10:34:44.925Z,66.55
2022-12-31T10:37:17.779Z,65.50
2022-12-31T10:40:00.503Z,64.21
2022-12-31T10:43:14.226Z,63.00
2022-12-31T10:46:23.205Z,63.88
2022-12-31T10:49:32.536Z,63.34
2022-12-31T10:52:47.853Z,62.97
2022-12-31T10:56:07.927Z,62.61
2022-12-31T10:59:12.417Z,62.26
2022-12-31T11:01:49.969Z,61.55
2022-12-31T11:04:59.433Z,61.17
2022-12-31T11:07:56.610Z,61.24
2022-12-31T11:11:09.782Z,61.52
2022-12-31T11:14:13.616Z,62.19
2022-12-31T11:17:06.597Z,61.18
2022-12-31T11:19:42.953Z,61.04
2022-12-31T11:22:23.905Z,59.69
2022-12-31T11:25:17.357Z,60.04
2022-12-31T11:27:59.641Z,60.63
2022-12-31T11:30:36.952Z,61.28
2022-12-31T11:33:21.544Z,61.68
2022-12-31T11:36:04.277Z,62.21
2022-12-31T11:38:38.920Z,62.24
2022-12-31T11:41:12.359Z,62.01
2022-12-31T11:43:49.583Z,61.71
2022-12-31T11:46:35.164Z,63.06
2022-12-31T11:49:16.636Z,63.75
2022-12-31T11:52:00.799Z,64.08
2022-12-31T11:54:41.290Z,63.59
2022-12-31T11:57:19.028Z,63.73
2022-12-31T11:59:47.863Z,63.28
2022-12-31T12:02:26.308Z,63.30
2022-12-31T12:04:58.795Z,62.72
2022-12-31T12:07:27.541Z,61.88
2022-12-31T12:09:59.185Z,62.40
2022-12-31T12:12:27.102Z,61.86
2022-12-31T12:14:55.929Z,62.46
2022-12-31T12:17:32.356Z,62.70
2022-12-31T12:20:06.782Z,62.46
2022-12-31T12:22:34.706Z,62.48
2022-12-31T12:25:05.721Z,62.42
2022-12-31T12:27:36.590Z,61.40
2022-12-31T12:30:20.866Z,61.15
2022-12-31T12:32:57.364Z,60.27
2022-12-31T12:35:29.879Z,60.33
2022-12-31T12:38:03.994Z,59.32
2022-12-31T12:40:34.594Z,59.32
2022-12-31T12:43:03.867Z,58.98
2022-12-31T12:45:45.147Z,59.12
2022-12-31T12:48:21.222Z,58.78
2022-12-31T12:50:50.961Z,58.41
2022-12-31T12:53:33.528Z,59.14
2022-12-31T12:56:13.219Z,59.79
2022-12-31T12:58:55.257Z,58.85
2022-12-31T13:01:34.269Z,58.44
2022-12-31T13:04:35.406Z,58.21
2022-12-31T13:07:19.993Z,58.54
2022-12-31T13:10:11.063Z,58.26
2022-12-31T13:13:22.779Z,58.10
2022-12-31T13:15:43.692Z,58.50
2022-12-31T13:18:33.955Z,58.09
2022-12-31T13:21:09.446Z,58.63
2022-12-31T13:23:49.226Z,59.23
2022-12-31T13:26:25.861Z,59.12
2022-12-31T13:28:54.771Z,59.00
2022-12-31T13:31:28.727Z,59.58
2022-12-31T13:34:00.491Z,59.40
2022-12-31T13:36:32.782Z,59.25
2022-12-31T13:39:06.602Z,58.87
2022-12-31T13:41:41.281Z,58.85
2022-12-31T13:44:16.322Z,58.61
2022-12-31T13:46:48.802Z,58.71
2022-12-31T13:49:22.720Z,59.64
2022-12-31T13:51:52.455Z,59.77
2022-12-31T13:54:35.050Z,59.75
2022-12-31T13:57:07.063Z,58.96
2022-12-31T13:59:38.696Z,59.21
2022-12-31T14:02:17.782Z,58.53
2022-12-31T14:04:52.235Z,59.17
2022-12-31T14:07:29.192Z,59.65
2022-12-31T14:10:04.139Z,58.98
2022-12-31T14:12:41.481Z,58.99
2022-12-31T14:15:19.801Z,59.82
2022-12-31T14:17:52.623Z,59.79
2022-12-31T14:20:30.530Z,59.80
2022-12-31T14:23:08.660Z,60.56
2022-12-31T14:25:42.353Z,61.52
2022-12-31T14:28:20.010Z,61.35
2022-12-31T14:30:51.305Z,61.73
2022-12-31T14:33:31.095Z,61.86
2022-12-31T14:36:28.822Z,62.69
2022-12-31T14:39:16.662Z,62.82
2022-12-31T14:41:59.168Z,62.90
2022-12-31T14:44:37.560Z,63.65
2022-12-31T14:47:21.582Z,63.34
2022-12-31T14:49:59.816Z,63.50
2022-12-31T14:52:31.591Z,63.87
2022-12-31T14:55:12.352Z,64.21
2022-12-31T14:58:25.413Z,64.08
2022-12-31T15:00:35.150Z,64.78
2022-12-31T15:03:06.494Z,65.70
2022-12-31T15:05:36.677Z,65.60
2022-12-31T15:08:25.281Z,65.22
2022-12-31T15:11:13.347Z,65.23
2022-12-31T15:14:16.438Z,65.65
2022-12-31T15:16:53.556Z,65.25
2022-12-31T15:19:58.205Z,65.35
2022-12-31T15:22:38.163Z,65.37
2022-12-31T15:25:22.448Z,65.80
2022-12-31T15:27:50.736Z,66.10
2022-12-31T15:30:44.783Z,66.42
2022-12-31T15:33:21.177Z,66.89
2022-12-31T15:35:52.060Z,67.06
2022-12-31T15:38:33.248Z,67.23
2022-12-31T15:41:02.503Z,67.80
2022-12-31T15:43:40.947Z,68.36
2022-12-31T15:46:18.201Z,68.49
2022-12-31T15:48:52.636Z,68.76
2022-12-31T15:51:25.184Z,68.82
2022-12-31T15:53:55.298Z,69.00
2022-12-31T15:56:32.328Z,69.65
2022-12-31T15:59:03.764Z,69.97
2022-12-31T16:01:36.295Z,70.05
2022-12-31T16:04:07.919Z,70.42
2022-12-31T16:06:38.780Z,70.22
2022-12-31T16:09:17.397Z,70.40
2022-12-31T16:11:45.930Z,70.83
2022-12-31T16:14:19.560Z,70.80
2022-12-31T16:16:55.509Z,70.80
2022-12-31T16:19:30.756Z,71.61
2022-12-31T16:22:02.435Z,72.46
2022-12-31T16:24:32.771Z,73.23
2022-12-31T16:27:04.008Z,72.99
2022-12-31T16:29:32.175Z,73.24
2022-12-31T16:32:03.821Z,73.37
2022-12-31T16:34:38.019Z,73.63
2022-12-31T16:37:15.074Z,74.10
2022-12-31T16:40:18.461Z,74.11
2022-12-31T16:42:48.546Z,74.09
2022-12-31T16:45:33.504Z,74.71
2022-12-31T16:48:16.407Z,74.54
2022-12-31T16:50:46.308Z,74.29
2022-12-31T16:53:17.943Z,75.05
2022-12-31T16:55:51.571Z,75.28
2022-12-31T16:58:24.051Z,77.02
2022-12-31T17:00:52.688Z,77.09
2022-12-31T17:03:24.975Z,77.38
2022-12-31T17:05:59.223Z,77.25
2022-12-31T17:08:29.403Z,76.92
2022-12-31T17:10:57.684Z,78.66
2022-12-31T17:13:30.749Z,78.89
2022-12-31T17:16:00.343Z,78.12
2022-12-31T17:18:37.170Z,78.25
2022-12-31T17:21:09.479Z,78.83
2022-12-31T17:23:40.086Z,79.71
2022-12-31T17:26:11.967Z,79.82
2022-12-31T17:28:44.981Z,80.08
2022-12-31T17:31:36.833Z,80.17
2022-12-31T17:34:23.521Z,79.86
2022-12-31T17:37:00.160Z,79.95
2022-12-31T17:39:40.681Z,79.88
2022-12-31T17:42:10.630Z,81.19
2022-12-31T17:44:40.138Z,80.95
2022-12-31T17:47:11.817Z,80.58
2022-12-31T17:49:43.047Z,81.81
2022-12-31T17:52:13.759Z,83.47
2022-12-31T17:54:41.915Z,84.37
2022-12-31T17:57:23.998Z,83.42
2022-12-31T17:59:52.015Z,83.11
2022-12-31T18:02:20.238Z,82.71
2022-12-31T18:04:49.651Z,82.65
2022-12-31T18:07:17.615Z,83.48
2022-12-31T18:09:45.523Z,83.50
2022-12-31T18:12:16.239Z,83.75
2022-12-31T18:14:46.634Z,82.79
2022-12-31T18:17:17.194Z,82.81
2022-12-31T18:20:04.281Z,82.59
2022-12-31T18:22:35.292Z,81.84
2022-12-31T18:25:03.499Z,81.87
2022-12-31T18:27:32.319Z,82.43
2022-12-31T18:30:04.421Z,83.73
2022-12-31T18:32:34.548Z,86.18
2022-12-31T18:35:03.213Z,85.85
2022-12-31T18:37:31.248Z,85.05
2022-12-31T18:40:00.579Z,84.32
2022-12-31T18:42:29.965Z,84.21
2022-12-31T18:44:57.911Z,84.19
2022-12-31T18:47:25.902Z,83.72
2022-12-31T18:49:53.907Z,84.41
2022-12-31T18:52:25.104Z,84.90
2022-12-31T18:54:53.031Z,85.00
2022-12-31T18:57:22.358Z,85.14
2022-12-31T18:59:50.355Z,84.82
2022-12-31T19:02:21.072Z,84.61
2022-12-31T19:04:49.193Z,84.85
2022-12-31T19:07:17.133Z,84.83
2022-12-31T19:09:46.366Z,84.84
2022-12-31T19:12:15.943Z,85.30
2022-12-31T19:14:45.622Z,87.19
2022-12-31T19:17:13.593Z,87.14
2022-12-31T19:19:41.774Z,86.83
2022-12-31T19:22:14.849Z,86.88
2022-12-31T19:24:42.732Z,88.87
2022-12-31T19:27:11.524Z,89.25
2022-12-31T19:29:39.639Z,89.93
2022-12-31T19:32:09.004Z,89.72
2022-12-31T19:34:36.979Z,90.93
2022-12-31T19:37:04.965Z,90.68
2022-12-31T19:39:32.893Z,89.44
2022-12-31T19:42:00.922Z,88.25
2022-12-31T19:44:28.857Z,88.93
2022-12-31T19:46:56.896Z,89.73
2022-12-31T19:49:26.193Z,89.45
2022-12-31T19:51:54.159Z,88.41
2022-12-31T19:54:22.003Z,88.18
2022-12-31T19:56:50.112Z,87.77
2022-12-31T19:59:18.092Z,88.89
2022-12-31T20:01:46.083Z,88.40
2022-12-31T20:04:14.132Z,88.88
2022-12-31T20:06:43.466Z,89.77
2022-12-31T20:09:12.670Z,88.88
2022-12-31T20:11:40.576Z,89.72
2022-12-31T20:14:10.264Z,91.04
2022-12-31T20:16:38.266Z,90.69
2022-12-31T20:19:06.592Z,90.55
2022-12-31T20:21:34.499Z,91.10
2022-12-31T20:24:06.466Z,92.38
2022-12-31T20:26:35.155Z,92.11
2022-12-31T20:29:03.121Z,91.43
2022-12-31T20:31:31.030Z,91.64
2022-12-31T20:33:59.039Z,92.37
2022-12-31T20:36:27.626Z,92.16
2022-12-31T20:38:55.589Z,91.93
2022-12-31T20:41:25.071Z,90.74
2022-12-31T20:43:53.169Z,90.45
2022-12-31T20:46:23.348Z,90.25
2022-12-31T20:48:53.388Z,89.80
2022-12-31T20:51:22.890Z,90.50
2022-12-31T20:53:52.435Z,90.40
2022-12-31T20:56:20.475Z,90.37
2022-12-31T20:58:50.108Z,89.69
2022-12-31T21:01:18.910Z,89.41
2022-12-31T21:04:05.755Z,89.83
2022-12-31T21:06:37.311Z,89.82
2022-12-31T21:09:07.756Z,89.79
2022-12-31T21:11:53.618Z,89.81
2022-12-31T21:14:23.025Z,90.29
2022-12-31T21:16:51.284Z,90.02
2022-12-31T21:19:19.230Z,91.52
2022-12-31T21:21:48.272Z,92.40
2022-12-31T21:24:21.744Z,92.97
2022-12-31T21:26:51.685Z,93.13
2022-12-31T21:29:19.646Z,94.82
2022-12-31T21:31:49.029Z,95.07
2022-12-31T21:34:16.995Z,95.72
2022-12-31T21:36:45.011Z,94.99
2022-12-31T21:39:14.701Z,94.46
2022-12-31T21:41:54.621Z,95.30
2022-12-31T21:44:24.226Z,93.67
2022-12-31T21:47:37.155Z,93.51
2022-12-31T21:50:07.265Z,93.03
2022-12-31T21:52:35.348Z,95.66
2022-12-31T21:55:23.550Z,95.67
2022-12-31T21:58:24.763Z,93.98
2022-12-31T22:00:58.286Z,94.76
2022-12-31T22:03:28.638Z,94.92
2022-12-31T22:06:00.012Z,96.13
2022-12-31T22:08:29.878Z,96.81
2022-12-31T22:10:57.806Z,95.46
2022-12-31T22:13:25.770Z,94.09
2022-12-31T22:16:00.217Z,94.61
2022-12-31T22:18:35.588Z,93.45
2022-12-31T22:21:05.566Z,93.91
2022-12-31T22:23:34.781Z,94.03
2022-12-31T22:26:03.281Z,93.03
2022-12-31T22:28:40.006Z,92.42
2022-12-31T22:31:09.316Z,94.01
2022-12-31T22:33:38.727Z,93.93
2022-12-31T22:36:09.165Z,92.94
2022-12-31T22:38:37.425Z,93.38
2022-12-31T22:41:08.038Z,93.95
2022-12-31T22:43:38.812Z,93.51
2022-12-31T22:46:11.270Z,93.34
2022-12-31T22:48:41.615Z,93.91
2022-12-31T22:51:11.073Z,94.26
2022-12-31T22:53:39.939Z,94.78
2022-12-31T22:56:08.036Z,95.03
2022-12-31T22:58:36.603Z,95.37
2022-12-31T23:01:06.265Z,94.38
2022-12-31T23:03:34.765Z,93.93
2022-12-31T23:06:04.226Z,95.72
2022-12-31T23:08:32.177Z,96.47
2022-12-31T23:10:59.930Z,97.13
2022-12-31T23:13:50.534Z,96.68
2022-12-31T23:16:37.188Z,96.05
2022-12-31T23:19:23.847Z,95.28
2022-12-31T23:22:11.280Z,96.29
2022-12-31T23:24:39.410Z,96.76
2022-12-31T23:27:08.122Z,95.57
2022-12-31T23:29:45.550Z,95.09
2022-12-31T23:32:14.958Z,96.13
2022-12-31T23:34:44.706Z,95.31
2022-12-31T23:37:14.859Z,95.12
2022-12-31T23:39:43.484Z,94.68
2022-12-31T23:42:11.677Z,94.45
2022-12-31T23:44:39.797Z,95.84
2022-12-31T23:47:07.748Z,95.37
2022-12-31T23:49:35.709Z,95.10
2022-12-31T23:52:03.723Z,94.70
2022-12-31T23:54:33.200Z,95.76
2022-12-31T23:57:01.169Z,96.13
2022-12-31T23:59:29.126Z,96.50
